sensor_id;sensor_type;location;lat;lon;timestamp;pressure;altitude;pressure_sealevel;temperature;humidity
36502;BME280;25393;46.108;3.390;2023-03-04T00:00:51;98497.38;;;5.73;79.61
36502;BME280;25393;46.108;3.390;2023-03-04T00:03:17;98485.44;;;5.69;80.39
36502;BME280;25393;46.108;3.390;2023-03-04T00:05:44;98489.00;;;5.68;80.66
36502;BME280;25393;46.108;3.390;2023-03-04T00:08:12;98487.00;;;5.60;80.48
36502;BME280;25393;46.108;3.390;2023-03-04T00:10:38;98481.31;;;5.55;81.03
36502;BME280;25393;46.108;3.390;2023-03-04T00:13:05;98487.78;;;5.51;81.66
36502;BME280;25393;46.108;3.390;2023-03-04T00:15:31;98491.56;;;5.58;81.63
36502;BME280;25393;46.108;3.390;2023-03-04T00:17:58;98490.72;;;5.58;81.52
36502;BME280;25393;46.108;3.390;2023-03-04T00:20:27;98487.78;;;5.51;82.14
36502;BME280;25393;46.108;3.390;2023-03-04T00:22:57;98494.56;;;5.53;81.41
36502;BME280;25393;46.108;3.390;2023-03-04T00:25:23;98479.41;;;5.46;81.28
36502;BME280;25393;46.108;3.390;2023-03-04T00:27:52;98482.19;;;5.44;81.44
36502;BME280;25393;46.108;3.390;2023-03-04T00:30:19;98480.94;;;5.28;81.73
36502;BME280;25393;46.108;3.390;2023-03-04T00:32:45;98482.53;;;5.19;81.88
36502;BME280;25393;46.108;3.390;2023-03-04T00:35:12;98488.72;;;5.18;82.67
36502;BME280;25393;46.108;3.390;2023-03-04T00:37:38;98492.09;;;5.20;83.12
36502;BME280;25393;46.108;3.390;2023-03-04T00:40:05;98495.31;;;5.24;82.29
36502;BME280;25393;46.108;3.390;2023-03-04T00:42:31;98484.47;;;5.17;82.55
36502;BME280;25393;46.108;3.390;2023-03-04T00:44:58;98489.81;;;5.16;83.53
36502;BME280;25393;46.108;3.390;2023-03-04T00:47:24;98478.13;;;5.09;84.08
36502;BME280;25393;46.108;3.390;2023-03-04T00:49:52;98488.72;;;5.18;83.30
36502;BME280;25393;46.108;3.390;2023-03-04T00:52:18;98491.63;;;5.15;84.16
36502;BME280;25393;46.108;3.390;2023-03-04T00:54:45;98473.97;;;5.06;84.33
36502;BME280;25393;46.108;3.390;2023-03-04T00:57:11;98473.94;;;5.17;84.69
36502;BME280;25393;46.108;3.390;2023-03-04T00:59:38;98484.91;;;5.22;84.19
36502;BME280;25393;46.108;3.390;2023-03-04T01:02:06;98477.78;;;5.13;84.97
36502;BME280;25393;46.108;3.390;2023-03-04T01:04:32;98474.66;;;5.08;84.87
36502;BME280;25393;46.108;3.390;2023-03-04T01:06:59;98472.97;;;5.18;84.94
36502;BME280;25393;46.108;3.390;2023-03-04T01:09:25;98470.63;;;5.04;85.45
36502;BME280;25393;46.108;3.390;2023-03-04T01:11:54;98463.72;;;5.03;85.68
36502;BME280;25393;46.108;3.390;2023-03-04T01:14:20;98465.94;;;5.08;86.18
36502;BME280;25393;46.108;3.390;2023-03-04T01:16:48;98479.19;;;5.17;85.86
36502;BME280;25393;46.108;3.390;2023-03-04T01:19:15;98476.78;;;5.14;86.53
36502;BME280;25393;46.108;3.390;2023-03-04T01:21:41;98462.72;;;5.04;86.22
36502;BME280;25393;46.108;3.390;2023-03-04T01:24:08;98483.03;;;5.13;86.11
36502;BME280;25393;46.108;3.390;2023-03-04T01:26:34;98472.78;;;5.10;86.64
36502;BME280;25393;46.108;3.390;2023-03-04T01:29:02;98461.19;;;5.01;86.92
36502;BME280;25393;46.108;3.390;2023-03-04T01:31:32;98465.25;;;5.06;87.00
36502;BME280;25393;46.108;3.390;2023-03-04T01:34:02;98456.91;;;5.00;86.83
36502;BME280;25393;46.108;3.390;2023-03-04T01:36:30;98464.16;;;5.08;87.57
36502;BME280;25393;46.108;3.390;2023-03-04T01:38:56;98437.34;;;4.93;87.03
36502;BME280;25393;46.108;3.390;2023-03-04T01:41:25;98463.81;;;5.13;87.71
36502;BME280;25393;46.108;3.390;2023-03-04T01:43:57;98457.69;;;5.12;87.41
36502;BME280;25393;46.108;3.390;2023-03-04T01:46:27;98444.94;;;5.08;87.89
36502;BME280;25393;46.108;3.390;2023-03-04T01:48:55;98453.53;;;5.10;88.43
36502;BME280;25393;46.108;3.390;2023-03-04T01:51:22;98456.75;;;5.13;88.45
36502;BME280;25393;46.108;3.390;2023-03-04T01:53:49;98457.19;;;5.18;88.65
36502;BME280;25393;46.108;3.390;2023-03-04T01:56:22;98459.47;;;5.23;87.67
36502;BME280;25393;46.108;3.390;2023-03-04T01:59:10;98446.34;;;5.12;88.24
36502;BME280;25393;46.108;3.390;2023-03-04T02:01:37;98450.28;;;5.17;89.10
36502;BME280;25393;46.108;3.390;2023-03-04T02:04:05;98451.28;;;5.05;89.42
36502;BME280;25393;46.108;3.390;2023-03-04T02:06:34;98437.59;;;4.90;89.12
36502;BME280;25393;46.108;3.390;2023-03-04T02:09:05;98448.06;;;5.01;88.69
36502;BME280;25393;46.108;3.390;2023-03-04T02:11:35;98437.56;;;5.01;88.28
36502;BME280;25393;46.108;3.390;2023-03-04T02:14:05;98444.06;;;5.18;87.70
36502;BME280;25393;46.108;3.390;2023-03-04T02:16:34;98442.16;;;5.20;87.13
36502;BME280;25393;46.108;3.390;2023-03-04T02:19:41;98420.81;;;5.14;86.67
36502;BME280;25393;46.108;3.390;2023-03-04T02:22:09;98441.28;;;5.31;86.38
36502;BME280;25393;46.108;3.390;2023-03-04T02:24:44;98433.53;;;5.18;86.38
36502;BME280;25393;46.108;3.390;2023-03-04T02:27:13;98440.22;;;5.22;86.20
36502;BME280;25393;46.108;3.390;2023-03-04T02:29:39;98431.66;;;5.20;85.89
36502;BME280;25393;46.108;3.390;2023-03-04T02:32:09;98434.38;;;5.19;86.38
36502;BME280;25393;46.108;3.390;2023-03-04T02:34:45;98435.47;;;5.16;86.03
36502;BME280;25393;46.108;3.390;2023-03-04T02:37:13;98430.22;;;5.16;86.39
36502;BME280;25393;46.108;3.390;2023-03-04T02:39:42;98431.66;;;5.20;86.50
36502;BME280;25393;46.108;3.390;2023-03-04T02:42:09;98427.56;;;5.27;86.30
36502;BME280;25393;46.108;3.390;2023-03-04T02:44:38;98430.88;;;5.29;85.96
36502;BME280;25393;46.108;3.390;2023-03-04T02:47:08;98418.69;;;5.28;86.29
36502;BME280;25393;46.108;3.390;2023-03-04T02:49:37;98428.00;;;5.32;86.65
36502;BME280;25393;46.108;3.390;2023-03-04T02:52:18;98424.09;;;5.27;86.35
36502;BME280;25393;46.108;3.390;2023-03-04T02:54:45;98419.41;;;5.30;86.72
36502;BME280;25393;46.108;3.390;2023-03-04T02:57:12;98410.63;;;5.20;86.76
36502;BME280;25393;46.108;3.390;2023-03-04T02:59:40;98428.13;;;5.31;86.54
36502;BME280;25393;46.108;3.390;2023-03-04T03:02:08;98426.66;;;5.38;86.42
36502;BME280;25393;46.108;3.390;2023-03-04T03:04:37;98398.16;;;5.22;86.14
36502;BME280;25393;46.108;3.390;2023-03-04T03:07:05;98422.22;;;5.38;85.80
36502;BME280;25393;46.108;3.390;2023-03-04T03:09:32;98432.28;;;5.33;86.64
36502;BME280;25393;46.108;3.390;2023-03-04T03:12:01;98421.78;;;5.33;86.20
36502;BME280;25393;46.108;3.390;2023-03-04T03:14:28;98409.84;;;5.29;85.91
36502;BME280;25393;46.108;3.390;2023-03-04T03:16:55;98416.56;;;5.22;86.74
36502;BME280;25393;46.108;3.390;2023-03-04T03:19:21;98434.72;;;5.25;86.32
36502;BME280;25393;46.108;3.390;2023-03-04T03:21:47;98424.44;;;5.22;86.94
36502;BME280;25393;46.108;3.390;2023-03-04T03:24:15;98428.56;;;5.36;86.45
36502;BME280;25393;46.108;3.390;2023-03-04T03:26:42;98421.63;;;5.35;86.31
36502;BME280;25393;46.108;3.390;2023-03-04T03:29:08;98426.72;;;5.27;86.18
36502;BME280;25393;46.108;3.390;2023-03-04T03:31:38;98410.78;;;5.08;86.81
36502;BME280;25393;46.108;3.390;2023-03-04T03:34:04;98401.69;;;5.12;87.42
36502;BME280;25393;46.108;3.390;2023-03-04T03:36:32;98401.81;;;5.10;87.41
36502;BME280;25393;46.108;3.390;2023-03-04T03:38:58;98416.81;;;5.19;87.26
36502;BME280;25393;46.108;3.390;2023-03-04T03:41:25;98407.00;;;5.21;86.98
36502;BME280;25393;46.108;3.390;2023-03-04T03:43:51;98412.84;;;5.25;86.88
36502;BME280;25393;46.108;3.390;2023-03-04T03:46:18;98407.47;;;5.26;85.80
36502;BME280;25393;46.108;3.390;2023-03-04T03:48:44;98423.69;;;5.31;86.41
36502;BME280;25393;46.108;3.390;2023-03-04T03:51:11;98421.25;;;5.19;87.29
36502;BME280;25393;46.108;3.390;2023-03-04T03:53:40;98418.53;;;5.09;87.18
36502;BME280;25393;46.108;3.390;2023-03-04T03:56:09;98427.44;;;5.18;87.10
36502;BME280;25393;46.108;3.390;2023-03-04T03:58:39;98419.72;;;5.16;87.57
36502;BME280;25393;46.108;3.390;2023-03-04T04:01:05;98411.50;;;5.10;87.50
36502;BME280;25393;46.108;3.390;2023-03-04T04:03:34;98412.91;;;5.14;87.05
36502;BME280;25393;46.108;3.390;2023-03-04T04:06:01;98417.41;;;5.23;87.20
36502;BME280;25393;46.108;3.390;2023-03-04T04:08:27;98413.63;;;5.16;87.02
36502;BME280;25393;46.108;3.390;2023-03-04T04:10:54;98421.50;;;5.16;87.53
36502;BME280;25393;46.108;3.390;2023-03-04T04:13:20;98409.94;;;5.07;87.68
36502;BME280;25393;46.108;3.390;2023-03-04T04:15:47;98411.97;;;5.03;87.12
36502;BME280;25393;46.108;3.390;2023-03-04T04:18:13;98417.59;;;5.10;87.96
36502;BME280;25393;46.108;3.390;2023-03-04T04:20:39;98416.69;;;5.21;87.42
36502;BME280;25393;46.108;3.390;2023-03-04T04:23:06;98423.63;;;5.22;87.24
36502;BME280;25393;46.108;3.390;2023-03-04T04:25:35;98423.78;;;5.09;87.49
36502;BME280;25393;46.108;3.390;2023-03-04T04:28:02;98425.81;;;5.17;87.59
36502;BME280;25393;46.108;3.390;2023-03-04T04:30:29;98418.28;;;5.12;87.54
36502;BME280;25393;46.108;3.390;2023-03-04T04:32:55;98421.88;;;5.11;87.27
36502;BME280;25393;46.108;3.390;2023-03-04T04:35:22;98407.31;;;5.07;86.89
36502;BME280;25393;46.108;3.390;2023-03-04T04:37:48;98425.47;;;5.10;86.88
36502;BME280;25393;46.108;3.390;2023-03-04T04:40:15;98417.38;;;5.02;86.59
36502;BME280;25393;46.108;3.390;2023-03-04T04:42:42;98422.97;;;5.09;86.95
36502;BME280;25393;46.108;3.390;2023-03-04T04:45:11;98412.44;;;5.09;86.14
36502;BME280;25393;46.108;3.390;2023-03-04T04:47:38;98406.28;;;4.98;86.00
36502;BME280;25393;46.108;3.390;2023-03-04T04:50:05;98389.84;;;4.85;86.95
36502;BME280;25393;46.108;3.390;2023-03-04T04:52:32;98428.25;;;4.97;86.83
36502;BME280;25393;46.108;3.390;2023-03-04T04:54:58;98409.03;;;4.97;87.35
36502;BME280;25393;46.108;3.390;2023-03-04T04:57:25;98423.72;;;4.99;87.45
36502;BME280;25393;46.108;3.390;2023-03-04T04:59:51;98412.91;;;4.82;87.64
36502;BME280;25393;46.108;3.390;2023-03-04T05:02:18;98430.53;;;4.91;88.00
36502;BME280;25393;46.108;3.390;2023-03-04T05:04:45;98417.75;;;4.97;86.73
36502;BME280;25393;46.108;3.390;2023-03-04T05:07:11;98384.50;;;4.76;86.87
36502;BME280;25393;46.108;3.390;2023-03-04T05:09:38;98412.31;;;4.78;87.09
36502;BME280;25393;46.108;3.390;2023-03-04T05:12:07;98421.25;;;4.87;87.30
36502;BME280;25393;46.108;3.390;2023-03-04T05:14:33;98414.81;;;4.80;87.11
36502;BME280;25393;46.108;3.390;2023-03-04T05:16:59;98427.22;;;4.89;87.61
36502;BME280;25393;46.108;3.390;2023-03-04T05:19:26;98419.47;;;4.76;87.50
36502;BME280;25393;46.108;3.390;2023-03-04T05:21:52;98412.22;;;4.69;87.56
36502;BME280;25393;46.108;3.390;2023-03-04T05:24:19;98436.56;;;4.82;87.93
36502;BME280;25393;46.108;3.390;2023-03-04T05:26:46;98426.75;;;4.73;87.61
36502;BME280;25393;46.108;3.390;2023-03-04T05:29:12;98422.25;;;4.75;87.74
36502;BME280;25393;46.108;3.390;2023-03-04T05:31:39;98427.59;;;4.73;87.63
36502;BME280;25393;46.108;3.390;2023-03-04T05:34:06;98431.91;;;4.74;88.30
36502;BME280;25393;46.108;3.390;2023-03-04T05:36:32;98443.44;;;4.83;88.28
36502;BME280;25393;46.108;3.390;2023-03-04T05:38:59;98417.72;;;4.66;88.49
36502;BME280;25393;46.108;3.390;2023-03-04T05:41:25;98441.81;;;4.71;88.95
36502;BME280;25393;46.108;3.390;2023-03-04T05:43:52;98425.47;;;4.67;88.83
36502;BME280;25393;46.108;3.390;2023-03-04T05:46:19;98430.34;;;4.72;88.23
36502;BME280;25393;46.108;3.390;2023-03-04T05:48:52;98446.31;;;4.80;88.45
36502;BME280;25393;46.108;3.390;2023-03-04T05:51:20;98439.41;;;4.79;88.41
36502;BME280;25393;46.108;3.390;2023-03-04T05:53:47;98444.91;;;4.76;88.96
36502;BME280;25393;46.108;3.390;2023-03-04T05:56:16;98418.56;;;4.55;88.58
36502;BME280;25393;46.108;3.390;2023-03-04T05:58:46;98438.34;;;4.70;88.35
36502;BME280;25393;46.108;3.390;2023-03-04T06:01:16;98449.44;;;4.85;88.01
36502;BME280;25393;46.108;3.390;2023-03-04T06:03:45;98449.09;;;4.78;88.26
36502;BME280;25393;46.108;3.390;2023-03-04T06:06:14;98445.28;;;4.71;87.73
36502;BME280;25393;46.108;3.390;2023-03-04T06:08:41;98418.47;;;4.45;87.66
36502;BME280;25393;46.108;3.390;2023-03-04T06:11:09;98452.56;;;4.68;87.66
36502;BME280;25393;46.108;3.390;2023-03-04T06:13:36;98464.88;;;4.67;88.13
36502;BME280;25393;46.108;3.390;2023-03-04T06:16:03;98455.91;;;4.47;88.71
36502;BME280;25393;46.108;3.390;2023-03-04T06:18:30;98464.38;;;4.40;89.56
36502;BME280;25393;46.108;3.390;2023-03-04T06:20:58;98468.59;;;4.42;89.45
36502;BME280;25393;46.108;3.390;2023-03-04T06:23:26;98474.19;;;4.49;89.93
36502;BME280;25393;46.108;3.390;2023-03-04T06:25:54;98475.03;;;4.49;90.28
36502;BME280;25393;46.108;3.390;2023-03-04T06:28:21;98482.53;;;4.54;90.17
36502;BME280;25393;46.108;3.390;2023-03-04T06:30:51;98472.66;;;4.46;90.44
36502;BME280;25393;46.108;3.390;2023-03-04T06:33:18;98472.41;;;4.49;90.20
36502;BME280;25393;46.108;3.390;2023-03-04T06:35:45;98475.38;;;4.45;90.31
36502;BME280;25393;46.108;3.390;2023-03-04T06:38:14;98485.28;;;4.52;90.33
36502;BME280;25393;46.108;3.390;2023-03-04T06:40:44;98490.88;;;4.59;89.23
36502;BME280;25393;46.108;3.390;2023-03-04T06:43:11;98487.91;;;4.52;89.41
36502;BME280;25393;46.108;3.390;2023-03-04T06:45:44;98489.81;;;4.62;88.98
36502;BME280;25393;46.108;3.390;2023-03-04T06:48:11;98482.91;;;4.61;88.60
36502;BME280;25393;46.108;3.390;2023-03-04T06:50:41;98500.44;;;4.71;88.98
36502;BME280;25393;46.108;3.390;2023-03-04T06:53:11;98492.91;;;4.67;89.33
36502;BME280;25393;46.108;3.390;2023-03-04T06:55:45;98489.56;;;4.65;89.15
36502;BME280;25393;46.108;3.390;2023-03-04T06:58:15;98457.59;;;4.48;89.46
36502;BME280;25393;46.108;3.390;2023-03-04T07:00:45;98478.09;;;4.66;88.71
36502;BME280;25393;46.108;3.390;2023-03-04T07:03:16;98497.75;;;4.82;89.32
36502;BME280;25393;46.108;3.390;2023-03-04T07:05:43;98496.81;;;4.83;89.19
36502;BME280;25393;46.108;3.390;2023-03-04T07:08:10;98509.59;;;4.88;89.01
36502;BME280;25393;46.108;3.390;2023-03-04T07:10:39;98517.22;;;5.02;88.77
36502;BME280;25393;46.108;3.390;2023-03-04T07:13:06;98509.59;;;4.99;88.24
36502;BME280;25393;46.108;3.390;2023-03-04T07:15:32;98504.53;;;5.07;88.24
36502;BME280;25393;46.108;3.390;2023-03-04T07:17:59;98519.19;;;5.21;88.29
36502;BME280;25393;46.108;3.390;2023-03-04T07:20:25;98520.78;;;5.12;88.10
36502;BME280;25393;46.108;3.390;2023-03-04T07:22:52;98519.22;;;5.10;88.07
36502;BME280;25393;46.108;3.390;2023-03-04T07:25:18;98528.50;;;5.25;87.57
36502;BME280;25393;46.108;3.390;2023-03-04T07:27:45;98521.81;;;5.21;87.76
36502;BME280;25393;46.108;3.390;2023-03-04T07:30:15;98502.50;;;5.11;87.72
36502;BME280;25393;46.108;3.390;2023-03-04T07:32:45;98533.84;;;5.34;88.77
36502;BME280;25393;46.108;3.390;2023-03-04T07:35:14;98537.88;;;5.38;88.09
36502;BME280;25393;46.108;3.390;2023-03-04T07:37:41;98546.22;;;5.54;87.10
36502;BME280;25393;46.108;3.390;2023-03-04T07:40:15;98515.53;;;5.44;86.69
36502;BME280;25393;46.108;3.390;2023-03-04T07:42:48;98513.13;;;5.52;86.55
36502;BME280;25393;46.108;3.390;2023-03-04T07:45:15;98526.09;;;5.65;85.86
36502;BME280;25393;46.108;3.390;2023-03-04T07:47:44;98520.25;;;5.61;85.09
36502;BME280;25393;46.108;3.390;2023-03-04T07:50:15;98523.41;;;5.76;84.24
36502;BME280;25393;46.108;3.390;2023-03-04T07:52:47;98535.09;;;5.83;83.33
36502;BME280;25393;46.108;3.390;2023-03-04T07:55:16;98538.34;;;5.86;82.99
36502;BME280;25393;46.108;3.390;2023-03-04T07:57:45;98519.56;;;5.80;82.35
36502;BME280;25393;46.108;3.390;2023-03-04T08:00:16;98540.06;;;5.97;82.20
36502;BME280;25393;46.108;3.390;2023-03-04T08:02:43;98526.53;;;6.01;80.85
36502;BME280;25393;46.108;3.390;2023-03-04T08:05:13;98531.81;;;6.01;80.52
36502;BME280;25393;46.108;3.390;2023-03-04T08:07:40;98541.66;;;6.09;80.03
36502;BME280;25393;46.108;3.390;2023-03-04T08:10:09;98535.00;;;6.05;79.57
36502;BME280;25393;46.108;3.390;2023-03-04T08:12:36;98524.53;;;5.94;79.60
36502;BME280;25393;46.108;3.390;2023-03-04T08:15:02;98529.66;;;5.95;79.99
36502;BME280;25393;46.108;3.390;2023-03-04T08:17:29;98562.28;;;6.04;80.21
36502;BME280;25393;46.108;3.390;2023-03-04T08:19:56;98543.59;;;6.07;79.97
36502;BME280;25393;46.108;3.390;2023-03-04T08:22:22;98538.53;;;6.15;79.64
36502;BME280;25393;46.108;3.390;2023-03-04T08:24:49;98552.13;;;6.20;79.41
36502;BME280;25393;46.108;3.390;2023-03-04T08:27:15;98557.97;;;6.24;79.15
36502;BME280;25393;46.108;3.390;2023-03-04T08:29:45;98551.81;;;6.34;78.25
36502;BME280;25393;46.108;3.390;2023-03-04T08:32:14;98562.94;;;6.47;78.51
36502;BME280;25393;46.108;3.390;2023-03-04T08:34:41;98547.09;;;6.38;78.62
36502;BME280;25393;46.108;3.390;2023-03-04T08:37:09;98554.34;;;6.45;79.12
36502;BME280;25393;46.108;3.390;2023-03-04T08:39:36;98569.13;;;6.58;78.82
36502;BME280;25393;46.108;3.390;2023-03-04T08:42:03;98560.19;;;6.49;77.85
36502;BME280;25393;46.108;3.390;2023-03-04T08:44:29;98555.53;;;6.62;77.80
36502;BME280;25393;46.108;3.390;2023-03-04T08:46:56;98572.78;;;6.76;77.47
36502;BME280;25393;46.108;3.390;2023-03-04T08:49:22;98563.81;;;6.78;77.24
36502;BME280;25393;46.108;3.390;2023-03-04T08:51:49;98570.63;;;6.81;76.87
36502;BME280;25393;46.108;3.390;2023-03-04T08:54:15;98556.34;;;6.83;76.04
36502;BME280;25393;46.108;3.390;2023-03-04T08:56:45;98558.31;;;6.91;76.31
36502;BME280;25393;46.108;3.390;2023-03-04T08:59:14;98559.25;;;6.90;76.07
36502;BME280;25393;46.108;3.390;2023-03-04T09:01:41;98562.16;;;6.87;76.24
36502;BME280;25393;46.108;3.390;2023-03-04T09:04:09;98566.09;;;6.92;76.22
36502;BME280;25393;46.108;3.390;2023-03-04T09:06:36;98567.06;;;7.01;76.11
36502;BME280;25393;46.108;3.390;2023-03-04T09:09:03;98576.69;;;7.12;75.01
36502;BME280;25393;46.108;3.390;2023-03-04T09:11:30;98566.03;;;7.23;75.46
36502;BME280;25393;46.108;3.390;2023-03-04T09:13:57;98567.44;;;7.36;74.55
36502;BME280;25393;46.108;3.390;2023-03-04T09:16:23;98568.00;;;7.40;74.47
36502;BME280;25393;46.108;3.390;2023-03-04T09:18:50;98561.94;;;7.49;73.67
36502;BME280;25393;46.108;3.390;2023-03-04T09:21:16;98560.81;;;7.51;73.63
36502;BME280;25393;46.108;3.390;2023-03-04T09:23:46;98566.94;;;7.71;73.52
36502;BME280;25393;46.108;3.390;2023-03-04T09:26:25;98562.38;;;7.83;72.74
36502;BME280;25393;46.108;3.390;2023-03-04T09:28:53;98574.47;;;7.95;71.76
36502;BME280;25393;46.108;3.390;2023-03-04T09:31:21;98544.00;;;7.81;71.71
36502;BME280;25393;46.108;3.390;2023-03-04T09:33:47;98544.03;;;7.91;71.58
36502;BME280;25393;46.108;3.390;2023-03-04T09:36:14;98548.88;;;8.05;70.98
36502;BME280;25393;46.108;3.390;2023-03-04T09:38:41;98529.53;;;8.14;70.08
36502;BME280;25393;46.108;3.390;2023-03-04T09:41:21;98558.06;;;8.30;69.78
36502;BME280;25393;46.108;3.390;2023-03-04T09:43:50;98554.97;;;8.34;69.75
36502;BME280;25393;46.108;3.390;2023-03-04T09:46:22;98566.75;;;8.49;70.12
36502;BME280;25393;46.108;3.390;2023-03-04T09:48:54;98546.19;;;8.43;70.01
36502;BME280;25393;46.108;3.390;2023-03-04T09:54:08;98557.16;;;8.58;69.70
36502;BME280;25393;46.108;3.390;2023-03-04T09:56:38;98559.34;;;8.72;69.75
36502;BME280;25393;46.108;3.390;2023-03-04T09:59:37;98541.31;;;8.85;67.96
36502;BME280;25393;46.108;3.390;2023-03-04T10:02:19;98546.13;;;8.99;67.54
36502;BME280;25393;46.108;3.390;2023-03-04T10:04:50;98543.28;;;9.11;67.21
36502;BME280;25393;46.108;3.390;2023-03-04T10:07:32;98547.88;;;9.09;66.92
36502;BME280;25393;46.108;3.390;2023-03-04T10:10:03;98558.25;;;9.20;66.16
36502;BME280;25393;46.108;3.390;2023-03-04T10:12:32;98553.13;;;9.18;67.32
36502;BME280;25393;46.108;3.390;2023-03-04T10:15:03;98540.09;;;9.34;65.39
36502;BME280;25393;46.108;3.390;2023-03-04T10:17:35;98551.13;;;9.47;65.36
36502;BME280;25393;46.108;3.390;2023-03-04T10:20:09;98559.31;;;9.72;66.17
36502;BME280;25393;46.108;3.390;2023-03-04T10:22:47;98547.84;;;9.81;65.49
36502;BME280;25393;46.108;3.390;2023-03-04T10:25:20;98554.09;;;9.97;64.59
36502;BME280;25393;46.108;3.390;2023-03-04T10:28:01;98539.88;;;10.16;63.94
36502;BME280;25393;46.108;3.390;2023-03-04T10:32:58;98535.94;;;10.72;61.85
36502;BME280;25393;46.108;3.390;2023-03-04T10:35:31;98525.31;;;11.06;59.92
36502;BME280;25393;46.108;3.390;2023-03-04T10:38:01;98538.03;;;11.44;59.81
36502;BME280;25393;46.108;3.390;2023-03-04T10:40:36;98532.50;;;11.71;59.08
36502;BME280;25393;46.108;3.390;2023-03-04T10:43:07;98524.38;;;11.89;58.29
36502;BME280;25393;46.108;3.390;2023-03-04T10:45:40;98529.00;;;12.11;55.75
36502;BME280;25393;46.108;3.390;2023-03-04T10:48:27;98530.50;;;12.38;54.06
36502;BME280;25393;46.108;3.390;2023-03-04T10:51:22;98525.03;;;12.23;54.47
36502;BME280;25393;46.108;3.390;2023-03-04T10:53:54;98514.16;;;12.57;55.29
36502;BME280;25393;46.108;3.390;2023-03-04T10:56:30;98522.91;;;13.37;52.72
36502;BME280;25393;46.108;3.390;2023-03-04T11:02:29;98521.31;;;13.96;50.53
36502;BME280;25393;46.108;3.390;2023-03-04T11:05:18;98516.22;;;14.46;49.88
36502;BME280;25393;46.108;3.390;2023-03-04T11:07:53;98517.19;;;14.68;49.54
36502;BME280;25393;46.108;3.390;2023-03-04T11:10:29;98513.22;;;14.79;47.81
36502;BME280;25393;46.108;3.390;2023-03-04T11:13:06;98506.13;;;15.00;48.03
36502;BME280;25393;46.108;3.390;2023-03-04T11:15:55;98503.59;;;16.00;46.66
36502;BME280;25393;46.108;3.390;2023-03-04T11:21:07;98491.88;;;17.25;43.11
36502;BME280;25393;46.108;3.390;2023-03-04T11:24:00;98495.00;;;17.42;42.46
36502;BME280;25393;46.108;3.390;2023-03-04T11:26:42;98482.31;;;17.57;41.36
36502;BME280;25393;46.108;3.390;2023-03-04T11:29:15;98500.94;;;17.85;41.81
36502;BME280;25393;46.108;3.390;2023-03-04T11:32:09;98481.97;;;17.80;39.35
36502;BME280;25393;46.108;3.390;2023-03-04T11:34:50;98477.63;;;17.79;41.43
36502;BME280;25393;46.108;3.390;2023-03-04T11:37:39;98464.88;;;17.94;39.64
36502;BME280;25393;46.108;3.390;2023-03-04T11:40:20;98461.97;;;18.02;40.12
36502;BME280;25393;46.108;3.390;2023-03-04T11:42:56;98452.66;;;18.31;40.02
36502;BME280;25393;46.108;3.390;2023-03-04T11:45:31;98459.41;;;18.86;38.22
36502;BME280;25393;46.108;3.390;2023-03-04T11:50:53;98454.25;;;19.35;36.50
36502;BME280;25393;46.108;3.390;2023-03-04T11:53:52;98443.44;;;19.55;35.87
36502;BME280;25393;46.108;3.390;2023-03-04T11:59:06;98431.94;;;19.73;35.25
36502;BME280;25393;46.108;3.390;2023-03-04T12:01:55;98434.13;;;19.82;36.73
36502;BME280;25393;46.108;3.390;2023-03-04T12:15:43;98416.78;;;20.03;33.35
36502;BME280;25393;46.108;3.390;2023-03-04T12:18:34;98415.19;;;19.95;34.79
36502;BME280;25393;46.108;3.390;2023-03-04T12:26:24;98404.59;;;20.50;33.40
36502;BME280;25393;46.108;3.390;2023-03-04T12:32:17;98400.16;;;20.13;34.12
36502;BME280;25393;46.108;3.390;2023-03-04T12:37:56;98379.84;;;19.92;33.71
36502;BME280;25393;46.108;3.390;2023-03-04T12:40:46;98377.28;;;20.04;34.62
36502;BME280;25393;46.108;3.390;2023-03-04T12:48:40;98362.16;;;20.27;32.63
36502;BME280;25393;46.108;3.390;2023-03-04T12:51:19;98374.69;;;20.40;32.51
36502;BME280;25393;46.108;3.390;2023-03-04T12:53:57;98366.97;;;20.01;33.55
36502;BME280;25393;46.108;3.390;2023-03-04T12:58:59;98359.97;;;18.41;34.62
36502;BME280;25393;46.108;3.390;2023-03-04T13:01:35;98366.06;;;17.98;35.00
36502;BME280;25393;46.108;3.390;2023-03-04T13:07:28;98364.78;;;18.13;35.53
36502;BME280;25393;46.108;3.390;2023-03-04T13:10:12;98353.59;;;18.36;35.42
36502;BME280;25393;46.108;3.390;2023-03-04T13:12:50;98344.31;;;18.38;35.38
36502;BME280;25393;46.108;3.390;2023-03-04T13:15:31;98344.22;;;18.65;34.07
36502;BME280;25393;46.108;3.390;2023-03-04T13:18:45;98326.22;;;18.78;34.56
36502;BME280;25393;46.108;3.390;2023-03-04T13:23:50;98320.78;;;19.23;34.20
36502;BME280;25393;46.108;3.390;2023-03-04T13:28:52;98327.59;;;19.57;33.36
36502;BME280;25393;46.108;3.390;2023-03-04T13:31:24;98329.44;;;19.31;32.97
36502;BME280;25393;46.108;3.390;2023-03-04T13:33:54;98338.31;;;18.30;33.26
36502;BME280;25393;46.108;3.390;2023-03-04T13:39:21;98348.53;;;17.62;34.51
36502;BME280;25393;46.108;3.390;2023-03-04T13:41:50;98337.41;;;17.72;35.40
36502;BME280;25393;46.108;3.390;2023-03-04T13:47:19;98323.06;;;18.30;34.63
36502;BME280;25393;46.108;3.390;2023-03-04T13:49:47;98310.56;;;17.45;34.72
36502;BME280;25393;46.108;3.390;2023-03-04T13:52:39;98344.00;;;17.69;35.85
36502;BME280;25393;46.108;3.390;2023-03-04T13:58:02;98345.22;;;17.73;35.62
36502;BME280;25393;46.108;3.390;2023-03-04T14:00:46;98323.56;;;17.48;34.97
36502;BME280;25393;46.108;3.390;2023-03-04T14:03:20;98337.88;;;16.07;37.04
36502;BME280;25393;46.108;3.390;2023-03-04T14:06:14;98333.16;;;15.81;39.46
36502;BME280;25393;46.108;3.390;2023-03-04T14:08:45;98323.97;;;16.18;38.31
36502;BME280;25393;46.108;3.390;2023-03-04T14:11:22;98325.28;;;16.82;36.78
36502;BME280;25393;46.108;3.390;2023-03-04T14:13:50;98319.22;;;17.47;36.30
36502;BME280;25393;46.108;3.390;2023-03-04T14:16:22;98323.13;;;17.38;37.38
36502;BME280;25393;46.108;3.390;2023-03-04T14:18:58;98326.63;;;17.32;35.23
36502;BME280;25393;46.108;3.390;2023-03-04T14:21:27;98305.28;;;16.78;36.86
36502;BME280;25393;46.108;3.390;2023-03-04T14:24:20;98326.03;;;16.57;36.77
36502;BME280;25393;46.108;3.390;2023-03-04T14:26:49;98325.47;;;16.33;38.23
36502;BME280;25393;46.108;3.390;2023-03-04T14:29:24;98317.56;;;15.84;38.24